Time,TemperatureF,DewpointF,PressureIn,WindDirection,WindDirectionDegrees,WindSpeedMPH,WindSpeedGustMPH,Humidity,HourlyPrecipIn,Conditions,Clouds,dailyrainin,SoftwareType,DateUTC
2013-09-23 00:02:00,55.0,48.6,29.96,North,0,1.0,2.0,79,0.00,,,0.00,meteohub,2013-09-23 04:02:00,
2013-09-23 00:12:00,55.0,48.6,29.96,North,0,1.0,5.0,79,0.00,,,0.00,meteohub,2013-09-23 04:12:00,
2013-09-23 00:22:00,55.0,48.9,29.96,North,0,1.0,5.0,80,0.00,,,0.00,meteohub,2013-09-23 04:22:00,
2013-09-23 00:32:00,55.0,49.3,29.96,NW,315,1.0,3.0,81,0.00,,,0.00,meteohub,2013-09-23 04:32:00,
2013-09-23 00:42:00,54.0,48.6,29.96,NW,315,0.0,2.0,82,0.00,,,0.00,meteohub,2013-09-23 04:42:00,
2013-09-23 00:52:00,54.0,48.9,29.96,NW,315,1.0,2.0,83,0.00,,,0.00,meteohub,2013-09-23 04:52:00,
2013-09-23 01:02:00,54.0,49.3,29.96,NNW,337,0.0,3.0,84,0.00,,,0.00,meteohub,2013-09-23 05:02:00,
2013-09-23 01:12:00,54.0,49.6,29.96,NNW,337,1.0,3.0,85,0.00,,,0.00,meteohub,2013-09-23 05:12:00,
2013-09-23 01:22:00,53.1,48.9,29.96,NNW,337,0.0,2.0,86,0.00,,,0.00,meteohub,2013-09-23 05:22:00,
2013-09-23 01:32:00,53.1,49.6,29.96,NNW,337,0.0,2.0,88,0.00,,,0.00,meteohub,2013-09-23 05:32:00,
2013-09-23 01:42:00,53.1,49.8,29.96,NNW,337,1.0,2.0,89,0.00,,,0.00,meteohub,2013-09-23 05:42:00,
2013-09-23 01:52:00,52.0,49.1,29.98,NNW,337,0.0,2.0,90,0.00,,,0.00,meteohub,2013-09-23 05:52:00,
2013-09-23 02:02:00,52.0,49.5,29.98,NNW,337,1.0,2.0,91,0.00,,,0.00,meteohub,2013-09-23 06:02:00,
2013-09-23 02:12:00,52.0,49.5,29.98,NNW,337,1.0,2.0,91,0.00,,,0.00,meteohub,2013-09-23 06:12:00,
2013-09-23 02:22:00,52.0,49.5,29.98,NNW,337,2.0,2.0,91,0.00,,,0.00,meteohub,2013-09-23 06:22:00,
2013-09-23 02:32:00,52.0,49.5,29.98,North,0,1.0,3.0,91,0.00,,,0.00,meteohub,2013-09-23 06:32:00,
2013-09-23 02:42:00,52.0,49.5,29.98,North,0,1.0,2.0,91,0.00,,,0.00,meteohub,2013-09-23 06:42:00,
2013-09-23 02:52:00,52.0,49.5,29.98,North,0,1.0,3.0,91,0.00,,,0.00,meteohub,2013-09-23 06:52:00,
2013-09-23 03:02:00,52.0,49.5,29.98,North,0,1.0,3.0,91,0.00,,,0.00,meteohub,2013-09-23 07:02:00,
2013-09-23 03:12:00,52.0,49.5,29.98,North,0,0.0,2.0,91,0.00,,,0.00,meteohub,2013-09-23 07:12:00,
2013-09-23 03:22:00,52.0,49.5,29.98,North,0,0.0,2.0,91,0.00,,,0.00,meteohub,2013-09-23 07:22:00,
2013-09-23 03:32:00,52.0,49.5,29.98,North,0,2.0,2.0,91,0.00,,,0.00,meteohub,2013-09-23 07:32:00,
2013-09-23 03:42:00,52.0,49.5,29.98,North,0,2.0,2.0,91,0.00,,,0.00,meteohub,2013-09-23 07:42:00,
2013-09-23 03:52:00,52.0,49.1,29.99,NNW,337,0.0,2.0,90,0.00,,,0.00,meteohub,2013-09-23 07:52:00,
2013-09-23 04:02:00,53.1,49.8,29.99,NNW,337,0.0,4.0,89,0.00,,,0.00,meteohub,2013-09-23 08:02:00,
2013-09-23 04:12:00,53.1,49.8,29.99,NNW,337,0.0,2.0,89,0.00,,,0.00,meteohub,2013-09-23 08:12:00,
2013-09-23 04:22:00,53.1,49.6,29.99,NNW,337,1.0,2.0,88,0.00,,,0.00,meteohub,2013-09-23 08:22:00,
2013-09-23 04:32:00,53.1,49.3,29.99,North,0,2.0,5.0,87,0.00,,,0.00,meteohub,2013-09-23 08:32:00,
2013-09-23 04:42:00,53.1,48.9,29.99,North,0,2.0,5.0,86,0.00,,,0.00,meteohub,2013-09-23 08:42:00,
2013-09-23 04:52:00,53.1,48.7,29.99,NW,315,2.0,4.0,85,0.00,,,0.00,meteohub,2013-09-23 08:52:00,
2013-09-23 05:02:00,53.1,48.4,29.99,North,0,2.0,4.0,84,0.00,,,0.00,meteohub,2013-09-23 09:02:00,
2013-09-23 05:12:00,53.1,48.0,29.99,NW,315,2.0,4.0,83,0.00,,,0.00,meteohub,2013-09-23 09:12:00,
2013-09-23 05:22:00,53.1,48.0,30.01,NW,315,2.0,4.0,83,0.00,,,0.00,meteohub,2013-09-23 09:22:00,
2013-09-23 05:32:00,53.1,47.7,30.01,NW,315,1.0,6.0,82,0.00,,,0.00,meteohub,2013-09-23 09:32:00,
2013-09-23 05:42:00,53.1,47.7,30.01,NNW,337,2.0,4.0,82,0.00,,,0.00,meteohub,2013-09-23 09:42:00,
2013-09-23 05:52:00,53.1,48.0,30.01,NW,315,0.0,4.0,83,0.00,,,0.00,meteohub,2013-09-23 09:52:00,
2013-09-23 06:02:00,53.1,48.0,30.01,NW,315,0.0,3.0,83,0.00,,,0.00,meteohub,2013-09-23 10:02:00,
2013-09-23 06:12:00,53.1,48.4,30.01,NW,315,0.0,2.0,84,0.00,,,0.00,meteohub,2013-09-23 10:12:00,
2013-09-23 06:22:00,53.1,48.4,30.01,NW,315,1.0,2.0,84,0.00,,,0.00,meteohub,2013-09-23 10:22:00,
2013-09-23 06:32:00,53.1,48.4,30.03,NW,315,1.0,2.0,84,0.00,,,0.00,meteohub,2013-09-23 10:32:00,
2013-09-23 06:42:00,53.1,48.4,30.03,NW,315,1.0,2.0,84,0.00,,,0.00,meteohub,2013-09-23 10:42:00,
2013-09-23 06:52:00,53.1,48.4,30.04,NW,315,0.0,2.0,84,0.00,,,0.00,meteohub,2013-09-23 10:52:00,
2013-09-23 07:02:00,53.1,48.0,30.04,NNW,337,1.0,2.0,83,0.00,,,0.00,meteohub,2013-09-23 11:02:00,
2013-09-23 07:12:00,53.1,47.1,30.04,NW,315,1.0,4.0,80,0.00,,,0.00,meteohub,2013-09-23 11:12:00,
2013-09-23 07:22:00,53.1,46.8,30.06,NW,315,1.0,4.0,79,0.00,,,0.00,meteohub,2013-09-23 11:22:00,
2013-09-23 07:32:00,53.1,46.4,30.06,NW,315,2.0,2.0,78,0.00,,,0.00,meteohub,2013-09-23 11:32:00,
2013-09-23 07:42:00,54.0,46.9,30.06,NW,315,0.0,3.0,77,0.00,,,0.00,meteohub,2013-09-23 11:42:00,
2013-09-23 07:52:00,54.0,45.9,30.06,NW,315,0.0,4.0,74,0.00,,,0.00,meteohub,2013-09-23 11:52:00,
2013-09-23 08:02:00,54.0,45.9,30.06,NW,315,1.0,6.0,74,0.00,,,0.00,meteohub,2013-09-23 12:02:00,
2013-09-23 08:12:00,54.0,45.1,30.06,NW,315,0.0,6.0,72,0.00,,,0.00,meteohub,2013-09-23 12:12:00,
2013-09-23 08:22:00,54.0,45.5,30.06,North,0,1.0,6.0,73,0.00,,,0.00,meteohub,2013-09-23 12:22:00,
2013-09-23 08:32:00,55.0,46.2,30.08,NW,315,2.0,4.0,72,0.00,,,0.00,meteohub,2013-09-23 12:32:00,
2013-09-23 08:42:00,55.0,46.2,30.08,NW,315,2.0,2.0,72,0.00,,,0.00,meteohub,2013-09-23 12:42:00,
2013-09-23 08:52:00,55.0,46.2,30.09,NW,315,0.0,4.0,72,0.00,,,0.00,meteohub,2013-09-23 12:52:00,
2013-09-23 09:02:00,55.0,45.9,30.09,NNW,337,1.0,3.0,71,0.00,,,0.00,meteohub,2013-09-23 13:02:00,
2013-09-23 09:12:00,55.0,45.1,30.09,NW,315,2.0,4.0,69,0.00,,,0.00,meteohub,2013-09-23 13:12:00,
2013-09-23 09:22:00,55.9,45.5,30.09,NW,315,1.0,4.0,68,0.00,,,0.00,meteohub,2013-09-23 13:22:00,
2013-09-23 09:42:00,55.9,43.5,30.09,NE,45,0.0,6.0,63,0.00,,,0.00,meteohub,2013-09-23 13:42:00,
2013-09-23 09:52:00,57.0,44.1,30.09,WNW,292,1.0,4.0,62,0.00,,,0.00,meteohub,2013-09-23 13:52:00,
2013-09-23 10:02:00,57.0,44.1,30.11,NNW,337,0.0,6.0,62,0.00,,,0.00,meteohub,2013-09-23 14:02:00,
2013-09-23 10:12:00,57.0,42.8,30.11,NW,315,2.0,9.0,59,0.00,,,0.00,meteohub,2013-09-23 14:12:00,
2013-09-23 10:22:00,57.0,43.3,30.11,North,0,0.0,7.0,60,0.00,,,0.00,meteohub,2013-09-23 14:22:00,
2013-09-23 10:32:00,57.9,45.0,30.11,East,90,2.0,6.0,62,0.00,,,0.00,meteohub,2013-09-23 14:32:00,
2013-09-23 10:42:00,57.9,44.1,30.11,WNW,292,2.0,6.0,60,0.00,,,0.00,meteohub,2013-09-23 14:42:00,
2013-09-23 10:52:00,57.0,43.3,30.11,North,0,0.0,7.0,60,0.00,,,0.00,meteohub,2013-09-23 14:52:00,
2013-09-23 11:02:00,57.9,44.6,30.12,NNW,337,0.0,4.0,61,0.00,,,0.00,meteohub,2013-09-23 15:02:00,
2013-09-23 11:12:00,57.9,44.1,30.11,NW,315,2.0,7.0,60,0.00,,,0.00,meteohub,2013-09-23 15:12:00,
2013-09-23 11:22:00,57.9,44.1,30.12,North,0,2.0,8.0,60,0.00,,,0.00,meteohub,2013-09-23 15:22:00,
2013-09-23 11:32:00,57.9,43.7,30.11,NW,315,2.0,8.0,59,0.00,,,0.00,meteohub,2013-09-23 15:32:00,
2013-09-23 11:42:00,57.9,44.1,30.11,NNW,337,1.0,6.0,60,0.00,,,0.00,meteohub,2013-09-23 15:42:00,
2013-09-23 11:52:00,57.9,43.2,30.11,NE,45,1.0,11.0,58,0.00,,,0.00,meteohub,2013-09-23 15:52:00,
2013-09-23 12:02:00,57.9,42.8,30.12,North,0,4.0,11.0,57,0.00,,,0.00,meteohub,2013-09-23 16:02:00,
2013-09-23 12:12:00,59.0,43.7,30.11,NE,45,2.0,9.0,57,0.00,,,0.00,meteohub,2013-09-23 16:12:00,
2013-09-23 12:22:00,60.1,43.9,30.11,North,0,3.0,6.0,55,0.00,,,0.00,meteohub,2013-09-23 16:22:00,
2013-09-23 12:32:00,60.1,43.9,30.11,NNW,337,1.0,9.0,55,0.00,,,0.00,meteohub,2013-09-23 16:32:00,
2013-09-23 12:42:00,60.1,43.0,30.11,North,0,2.0,9.0,53,0.00,,,0.00,meteohub,2013-09-23 16:42:00,
2013-09-23 12:52:00,61.0,43.7,30.11,North,0,3.0,12.0,53,0.00,,,0.00,meteohub,2013-09-23 16:52:00,
2013-09-23 13:02:00,61.0,43.7,30.11,North,0,2.0,12.0,53,0.00,,,0.00,meteohub,2013-09-23 17:02:00,
2013-09-23 13:12:00,61.0,44.2,30.11,NW,315,0.0,9.0,54,0.00,,,0.00,meteohub,2013-09-23 17:12:00,
2013-09-23 13:22:00,62.1,44.8,30.11,NW,315,2.0,8.0,53,0.00,,,0.00,meteohub,2013-09-23 17:22:00,
2013-09-23 13:32:00,62.1,44.8,30.11,NW,315,3.0,11.0,53,0.00,,,0.00,meteohub,2013-09-23 17:32:00,
2013-09-23 13:42:00,61.0,44.2,30.09,North,0,1.0,11.0,54,0.00,,,0.00,meteohub,2013-09-23 17:42:00,
2013-09-23 13:52:00,62.1,45.1,30.09,NW,315,1.0,11.0,54,0.00,,,0.00,meteohub,2013-09-23 17:52:00,
2013-09-23 14:02:00,62.1,45.1,30.09,North,0,2.0,7.0,54,0.00,,,0.00,meteohub,2013-09-23 18:02:00,
2013-09-23 14:12:00,62.1,44.8,30.09,North,0,1.0,11.0,53,0.00,,,0.00,meteohub,2013-09-23 18:12:00,
2013-09-23 14:22:00,63.0,45.1,30.09,NNW,337,4.0,9.0,52,0.00,,,0.00,meteohub,2013-09-23 18:22:00,
2013-09-23 14:32:00,63.0,45.1,30.11,NW,315,3.0,10.0,52,0.00,,,0.00,meteohub,2013-09-23 18:32:00,
2013-09-23 14:42:00,64.0,45.0,30.11,North,0,2.0,6.0,50,0.00,,,0.00,meteohub,2013-09-23 18:42:00,
2013-09-23 14:52:00,63.0,44.1,30.09,West,270,6.0,12.0,50,0.00,,,0.00,meteohub,2013-09-23 18:52:00,
2013-09-23 15:02:00,64.0,45.5,30.09,NNW,337,4.0,12.0,51,0.00,,,0.00,meteohub,2013-09-23 19:02:00,
2013-09-23 15:12:00,64.0,45.0,30.09,NW,315,5.0,9.0,50,0.00,,,0.00,meteohub,2013-09-23 19:12:00,
2013-09-23 15:22:00,64.9,45.9,30.09,NW,315,2.0,9.0,50,0.00,,,0.00,meteohub,2013-09-23 19:22:00,
2013-09-23 15:32:00,64.9,44.8,30.09,North,0,2.0,9.0,48,0.00,,,0.00,meteohub,2013-09-23 19:32:00,
2013-09-23 15:42:00,64.9,43.7,30.09,NW,315,2.0,9.0,46,0.00,,,0.00,meteohub,2013-09-23 19:42:00,
2013-09-23 15:52:00,64.9,44.2,30.09,NW,315,2.0,6.0,47,0.00,,,0.00,meteohub,2013-09-23 19:52:00,
2013-09-23 16:02:00,64.9,44.2,30.09,NW,315,2.0,12.0,47,0.00,,,0.00,meteohub,2013-09-23 20:02:00,
2013-09-23 16:12:00,64.9,44.8,30.09,North,0,3.0,12.0,48,0.00,,,0.00,meteohub,2013-09-23 20:12:00,
2013-09-23 16:22:00,64.9,44.2,30.09,North,0,2.0,8.0,47,0.00,,,0.00,meteohub,2013-09-23 20:22:00,
2013-09-23 16:32:00,64.9,44.2,30.09,NNW,337,2.0,8.0,47,0.00,,,0.00,meteohub,2013-09-23 20:32:00,
2013-09-23 16:42:00,64.9,45.9,30.09,NW,315,2.0,9.0,50,0.00,,,0.00,meteohub,2013-09-23 20:42:00,
2013-09-23 16:52:00,64.0,44.4,30.09,North,0,3.0,9.0,49,0.00,,,0.00,meteohub,2013-09-23 20:52:00,
2013-09-23 17:02:00,63.0,44.6,30.08,NW,315,1.0,9.0,51,0.00,,,0.00,meteohub,2013-09-23 21:02:00,
2013-09-23 17:12:00,63.0,44.6,30.08,NNW,337,1.0,7.0,51,0.00,,,0.00,meteohub,2013-09-23 21:12:00,
2013-09-23 17:22:00,63.0,44.6,30.08,NW,315,2.0,6.0,51,0.00,,,0.00,meteohub,2013-09-23 21:22:00,
2013-09-23 17:32:00,63.0,44.6,30.08,North,0,1.0,9.0,51,0.00,,,0.00,meteohub,2013-09-23 21:32:00,
2013-09-23 17:42:00,63.0,44.6,30.08,NNW,337,2.0,10.0,51,0.00,,,0.00,meteohub,2013-09-23 21:42:00,
2013-09-23 17:52:00,63.0,44.6,30.08,North,0,1.0,10.0,51,0.00,,,0.00,meteohub,2013-09-23 21:52:00,
2013-09-23 18:02:00,63.0,45.1,30.08,North,0,2.0,8.0,52,0.00,,,0.00,meteohub,2013-09-23 22:02:00,
2013-09-23 18:12:00,63.0,45.1,30.08,NW,315,2.0,8.0,52,0.00,,,0.00,meteohub,2013-09-23 22:12:00,
2013-09-23 18:22:00,63.0,44.6,30.08,North,0,2.0,6.0,51,0.00,,,0.00,meteohub,2013-09-23 22:22:00,
2013-09-23 18:32:00,62.1,44.8,30.08,North,0,1.0,4.0,53,0.00,,,0.00,meteohub,2013-09-23 22:32:00,
2013-09-23 18:42:00,62.1,45.1,30.09,North,0,2.0,4.0,54,0.00,,,0.00,meteohub,2013-09-23 22:42:00,
2013-09-23 18:52:00,61.0,45.1,30.09,North,0,2.0,4.0,56,0.00,,,0.00,meteohub,2013-09-23 22:52:00,
2013-09-23 19:02:00,61.0,45.7,30.08,NNW,337,1.0,3.0,57,0.00,,,0.00,meteohub,2013-09-23 23:02:00,
2013-09-23 19:12:00,60.1,46.2,30.08,North,0,1.0,2.0,60,0.00,,,0.00,meteohub,2013-09-23 23:12:00,
2013-09-23 19:22:00,59.0,46.0,30.08,North,0,2.0,3.0,62,0.00,,,0.00,meteohub,2013-09-23 23:22:00,
2013-09-23 19:32:00,59.0,46.8,30.08,North,0,0.0,2.0,64,0.00,,,0.00,meteohub,2013-09-23 23:32:00,
2013-09-23 19:42:00,57.9,46.2,30.08,North,0,1.0,2.0,65,0.00,,,0.00,meteohub,2013-09-23 23:42:00,
2013-09-23 19:52:00,57.9,46.6,30.08,North,0,2.0,2.0,66,0.00,,,0.00,meteohub,2013-09-23 23:52:00,
2013-09-23 20:02:00,57.0,45.3,30.08,North,0,1.0,2.0,65,0.00,,,0.00,meteohub,2013-09-24 00:02:00,
2013-09-23 20:12:00,57.0,45.9,30.09,North,0,1.0,2.0,66,0.00,,,0.00,meteohub,2013-09-24 00:12:00,
2013-09-23 20:22:00,57.0,45.9,30.09,North,0,2.0,2.0,66,0.00,,,0.00,meteohub,2013-09-24 00:22:00,
2013-09-23 20:32:00,57.0,45.9,30.09,North,0,1.0,2.0,66,0.00,,,0.00,meteohub,2013-09-24 00:32:00,
2013-09-23 20:42:00,57.0,45.9,30.09,North,0,1.0,2.0,66,0.00,,,0.00,meteohub,2013-09-24 00:42:00,
2013-09-23 20:52:00,57.0,46.2,30.09,North,0,0.0,3.0,67,0.00,,,0.00,meteohub,2013-09-24 00:52:00,
2013-09-23 21:02:00,55.9,45.5,30.09,North,0,0.0,2.0,68,0.00,,,0.00,meteohub,2013-09-24 01:02:00,
2013-09-23 21:12:00,55.9,46.2,30.09,North,0,0.0,2.0,70,0.00,,,0.00,meteohub,2013-09-24 01:12:00,
2013-09-23 21:22:00,55.9,46.8,30.09,North,0,2.0,2.0,71,0.00,,,0.00,meteohub,2013-09-24 01:22:00,
2013-09-23 21:32:00,55.0,46.2,30.08,North,0,1.0,2.0,72,0.00,,,0.00,meteohub,2013-09-24 01:32:00,
2013-09-23 21:42:00,55.0,46.9,30.09,North,0,2.0,2.0,74,0.00,,,0.00,meteohub,2013-09-24 01:42:00,
2013-09-23 21:52:00,55.0,47.3,30.09,NNW,337,2.0,2.0,75,0.00,,,0.00,meteohub,2013-09-24 01:52:00,
2013-09-23 22:02:00,55.0,47.3,30.09,NNW,337,0.0,2.0,75,0.00,,,0.00,meteohub,2013-09-24 02:02:00,
2013-09-23 22:12:00,54.0,46.6,30.09,NNW,337,2.0,2.0,76,0.00,,,0.00,meteohub,2013-09-24 02:12:00,
2013-09-23 22:22:00,54.0,46.6,30.09,North,0,2.0,2.0,76,0.00,,,0.00,meteohub,2013-09-24 02:22:00,
2013-09-23 22:32:00,54.0,46.2,30.09,North,0,2.0,2.0,75,0.00,,,0.00,meteohub,2013-09-24 02:32:00,
2013-09-23 22:42:00,54.0,46.2,30.09,North,0,1.0,2.0,75,0.00,,,0.00,meteohub,2013-09-24 02:42:00,
2013-09-23 22:52:00,54.0,46.6,30.09,NNW,337,1.0,2.0,76,0.00,,,0.00,meteohub,2013-09-24 02:52:00,
2013-09-23 23:02:00,54.0,46.9,30.09,NNW,337,1.0,2.0,77,0.00,,,0.00,meteohub,2013-09-24 03:02:00,
2013-09-23 23:12:00,53.1,46.0,30.09,NNW,337,2.0,2.0,77,0.00,,,0.00,meteohub,2013-09-24 03:12:00,
2013-09-23 23:22:00,53.1,46.0,30.09,North,0,1.0,2.0,77,0.00,,,0.00,meteohub,2013-09-24 03:22:00,
2013-09-23 23:32:00,53.1,45.7,30.09,North,0,1.0,3.0,76,0.00,,,0.00,meteohub,2013-09-24 03:32:00,
2013-09-23 23:42:00,53.1,45.7,30.09,North,0,2.0,3.0,76,0.00,,,0.00,meteohub,2013-09-24 03:42:00,
2013-09-23 23:52:00,53.1,46.0,30.09,North,0,2.0,3.0,77,0.00,,,0.00,meteohub,2013-09-24 03:52:00,